Time;durP1;ratioP1;P1;durP2;ratioP2;P2;SDS_P1;SDS_P2;PMS_P1;PMS_P2;Temp;Humidity;BMP_temperature;BMP_pressure;BME280_temperature;BME280_humidity;BME280_pressure;Samples;Min_cycle;Max_cycle;Signal;HPM_P1;HPM_P2
2021/03/06 07:38:29;;;;;;;7.82;4.60;;;2.80;63.90;;;;;;5135384;27;948092;-61
2021/03/06 07:41:13;;;;;;;6.32;4.65;;;3.40;62.40;;;;;;5142419;27;27427;-62
2021/03/06 07:44:01;;;;;;;6.30;4.63;;;4.00;60.20;;;;;;5112600;27;27415;-62
2021/03/06 07:46:45;;;;;;;6.50;4.10;;;4.70;58.80;;;;;;5127203;27;27419;-62
2021/03/06 07:49:34;;;;;;;7.72;4.07;;;5.20;57.40;;;;;;5142318;27;27435;-65
2021/03/06 07:52:22;;;;;;;7.18;3.97;;;5.80;56.30;;;;;;5142538;27;27428;-63
2021/03/06 07:55:13;;;;;;;6.47;4.30;;;6.40;55.00;;;;;;5126918;27;27478;-63
2021/03/06 07:58:03;;;;;;;5.82;4.35;;;7.00;54.10;;;;;;5138556;27;27348;-64
2021/03/06 08:00:54;;;;;;;6.28;4.45;;;7.60;53.10;;;;;;5142357;27;27879;-62
2021/03/06 08:03:38;;;;;;;6.20;4.57;;;8.20;52.20;;;;;;5142037;27;27410;-63
2021/03/06 08:06:30;;;;;;;6.72;4.57;;;8.70;51.60;;;;;;5126650;27;27398;-63
2021/03/06 08:09:14;;;;;;;6.18;4.93;;;9.20;50.90;;;;;;5141993;27;27449;-65
2021/03/06 08:11:58;;;;;;;6.32;4.63;;;9.50;50.30;;;;;;5126881;27;27553;-63
2021/03/06 08:14:43;;;;;;;8.70;5.40;;;9.90;49.80;;;;;;5141869;27;27410;-63
2021/03/06 08:17:32;;;;;;;7.18;5.55;;;10.30;49.20;;;;;;5108538;27;27483;-62
2021/03/06 08:20:30;;;;;;;8.50;5.28;;;10.70;49.40;;;;;;5142138;27;27475;-62
2021/03/06 08:23:22;;;;;;;5.35;4.63;;;11.20;49.20;;;;;;5142060;27;27435;-62
2021/03/06 08:26:19;;;;;;;7.28;5.35;;;11.70;48.50;;;;;;5142039;27;27389;-63
2021/03/06 08:29:22;;;;;;;8.95;4.95;;;12.20;48.60;;;;;;5142023;27;27328;-62
2021/03/06 08:32:17;;;;;;;7.25;5.43;;;12.60;48.50;;;;;;5141972;27;27378;-63
2021/03/06 08:35:24;;;;;;;7.70;5.38;;;13.00;47.90;;;;;;5141377;27;27820;-64
2021/03/06 08:38:32;;;;;;;9.63;5.90;;;13.50;47.10;;;;;;5141078;27;27393;-63
2021/03/06 08:41:20;;;;;;;7.70;6.05;;;13.90;47.00;;;;;;5122828;27;27356;-64
2021/03/06 08:44:12;;;;;;;7.05;5.72;;;14.30;46.40;;;;;;5141781;27;27427;-66
2021/03/06 08:46:56;;;;;;;6.70;5.43;;;14.70;45.80;;;;;;5127080;27;27849;-65
2021/03/06 08:49:44;;;;;;;7.70;6.05;;;15.00;45.60;;;;;;5128273;27;27427;-65
2021/03/06 08:52:29;;;;;;;7.10;5.95;;;15.40;45.20;;;;;;5080654;27;27394;-65
2021/03/06 08:55:18;;;;;;;9.00;6.20;;;15.80;44.70;;;;;;5127807;27;27399;-65
2021/03/06 08:58:04;;;;;;;6.78;5.25;;;16.10;43.60;;;;;;5080676;27;27375;-68
2021/03/06 09:00:53;;;;;;;6.72;5.95;;;16.50;43.30;;;;;;5126915;27;27535;-69
2021/03/06 09:03:38;;;;;;;7.03;6.07;;;16.80;43.00;;;;;;5127566;27;27442;-69
2021/03/06 09:06:22;;;;;;;7.72;6.38;;;17.20;42.60;;;;;;5123964;27;27482;-69
2021/03/06 09:09:09;;;;;;;7.53;6.00;;;17.50;41.70;;;;;;5097399;27;27486;-69
2021/03/06 09:11:57;;;;;;;7.55;6.28;;;17.90;40.90;;;;;;5124048;27;27470;-70
2021/03/06 09:14:42;;;;;;;8.38;6.13;;;18.20;40.20;;;;;;5127472;27;27342;-69
2021/03/06 09:17:26;;;;;;;6.82;5.90;;;18.40;39.30;;;;;;5127233;27;27379;-69
2021/03/06 09:20:12;;;;;;;6.35;5.75;;;18.70;39.10;;;;;;5127263;27;27938;-68
2021/03/06 09:22:57;;;;;;;7.45;6.05;;;18.90;37.70;;;;;;5127013;27;27372;-68
2021/03/06 09:25:42;;;;;;;9.30;6.35;;;19.20;38.00;;;;;;5126963;27;27336;-68
2021/03/06 09:28:28;;;;;;;6.18;5.57;;;19.40;38.10;;;;;;5126673;27;27418;-68
2021/03/06 09:31:21;;;;;;;6.75;5.68;;;19.70;37.60;;;;;;5111421;27;27319;-68
2021/03/06 09:34:05;;;;;;;5.63;5.13;;;20.00;38.00;;;;;;5108223;27;27464;-68
2021/03/06 09:36:50;;;;;;;6.00;5.40;;;20.20;37.80;;;;;;5127002;27;27481;-67
2021/03/06 09:39:34;;;;;;;8.32;4.93;;;20.50;38.00;;;;;;5127075;27;27441;-65
2021/03/06 09:42:19;;;;;;;5.93;4.88;;;20.70;37.60;;;;;;5108044;27;27951;-67
2021/03/06 09:45:04;;;;;;;7.88;5.05;;;21.00;37.00;;;;;;5096944;27;27469;-66
2021/03/06 09:47:48;;;;;;;5.35;4.82;;;21.20;36.50;;;;;;5126869;27;27407;-67
2021/03/06 09:50:33;;;;;;;5.68;5.05;;;21.30;35.20;;;;;;5111527;27;27473;-67
2021/03/06 09:53:27;;;;;;;6.78;5.00;;;21.50;33.80;;;;;;5111133;27;27492;-67
2021/03/06 09:56:12;;;;;;;6.93;5.18;;;21.70;34.10;;;;;;5126355;27;27453;-67
2021/03/06 09:58:59;;;;;;;6.38;4.88;;;21.90;33.40;;;;;;5126559;27;27454;-66
2021/03/06 10:01:43;;;;;;;7.57;4.63;;;22.10;33.60;;;;;;5125874;27;27466;-66
2021/03/06 10:04:28;;;;;;;4.50;4.05;;;22.30;33.80;;;;;;5126337;27;28015;-66
2021/03/06 10:07:12;;;;;;;6.57;4.88;;;22.50;33.90;;;;;;5126216;27;27422;-66
2021/03/06 10:09:57;;;;;;;6.68;4.25;;;22.70;32.90;;;;;;5126673;27;27465;-67
2021/03/06 10:12:45;;;;;;;6.35;4.38;;;23.00;33.20;;;;;;5110970;27;27426;-66
2021/03/06 10:15:30;;;;;;;5.15;4.15;;;23.20;33.90;;;;;;5110943;27;27468;-66
2021/03/06 10:18:14;;;;;;;5.15;4.10;;;23.40;33.20;;;;;;5107448;27;27450;-65
2021/03/06 10:20:58;;;;;;;4.40;4.00;;;23.50;32.20;;;;;;5126526;27;27455;-66
2021/03/06 10:23:43;;;;;;;4.68;4.05;;;23.70;31.10;;;;;;5108360;27;27608;-66
2021/03/06 10:26:27;;;;;;;4.45;3.90;;;23.80;31.60;;;;;;5126340;27;28001;-65
2021/03/06 10:29:22;;;;;;;4.68;3.72;;;23.90;31.00;;;;;;5111065;27;27387;-65
2021/03/06 10:32:07;;;;;;;4.90;4.35;;;24.10;31.00;;;;;;5126389;27;27407;-65
2021/03/06 10:34:58;;;;;;;6.28;3.53;;;24.20;30.60;;;;;;5125988;27;27445;-65
2021/03/06 10:37:51;;;;;;;4.95;3.58;;;24.30;30.30;;;;;;5111218;27;27395;-65
2021/03/06 10:40:53;;;;;;;4.63;3.45;;;24.50;28.90;;;;;;5107288;27;27383;-63
2021/03/06 10:43:40;;;;;;;3.13;2.80;;;24.50;29.00;;;;;;5107348;27;27468;-65
2021/03/06 10:46:25;;;;;;;3.03;2.78;;;24.70;28.80;;;;;;5125958;27;27455;-64
2021/03/06 10:49:10;;;;;;;3.17;2.88;;;24.80;28.20;;;;;;5125080;27;27474;-65
2021/03/06 10:51:54;;;;;;;3.55;2.70;;;24.90;28.30;;;;;;5122505;27;27419;-65
2021/03/06 10:54:53;;;;;;;4.05;2.72;;;25.10;28.10;;;;;;5125607;27;27485;-65
2021/03/06 10:57:50;;;;;;;3.00;2.63;;;25.30;28.30;;;;;;5125831;27;27398;-65
2021/03/06 11:00:35;;;;;;;2.67;2.47;;;25.50;28.10;;;;;;5125601;27;27926;-65
2021/03/06 11:03:20;;;;;;;3.05;2.80;;;25.60;27.10;;;;;;5125680;27;27401;-65
2021/03/06 11:06:04;;;;;;;3.05;2.75;;;25.70;26.80;;;;;;5106735;27;27383;-65
2021/03/06 11:09:00;;;;;;;2.35;2.15;;;25.80;26.30;;;;;;5125393;27;26938;-64
2021/03/06 11:11:44;;;;;;;3.53;2.25;;;26.00;26.60;;;;;;5125365;27;27989;-65
2021/03/06 11:14:29;;;;;;;3.78;2.55;;;26.10;26.70;;;;;;5125267;27;27424;-64
2021/03/06 11:17:15;;;;;;;2.97;2.05;;;26.30;26.40;;;;;;5125129;27;27317;-65
2021/03/06 11:19:59;;;;;;;3.00;2.60;;;26.40;26.90;;;;;;5122259;27;27386;-64
2021/03/06 11:22:44;;;;;;;4.85;2.50;;;26.60;26.60;;;;;;5106620;27;27865;-64
2021/03/06 11:25:28;;;;;;;3.47;2.55;;;26.60;26.30;;;;;;5125216;27;27436;-64
2021/03/06 11:28:14;;;;;;;2.47;2.20;;;26.70;26.20;;;;;;5125227;27;27417;-64
2021/03/06 11:31:00;;;;;;;3.10;2.40;;;26.90;26.20;;;;;;5125211;27;27389;-64
2021/03/06 11:33:44;;;;;;;4.40;2.63;;;27.00;26.20;;;;;;5125659;27;27344;-64
2021/03/06 11:36:29;;;;;;;3.63;2.58;;;27.10;26.50;;;;;;5125093;27;27461;-64
2021/03/06 11:39:13;;;;;;;3.78;2.38;;;27.20;25.90;;;;;;5124184;27;27397;-64
2021/03/06 11:41:58;;;;;;;2.60;2.33;;;27.30;25.70;;;;;;5125326;27;27351;-64
2021/03/06 11:44:42;;;;;;;2.20;1.98;;;27.30;25.60;;;;;;5109363;27;27579;-64
2021/03/06 11:47:27;;;;;;;2.92;2.28;;;27.30;24.90;;;;;;5124869;27;27411;-64
2021/03/06 11:50:12;;;;;;;2.88;2.50;;;27.30;24.90;;;;;;5125222;27;27382;-64
2021/03/06 11:52:59;;;;;;;3.13;2.30;;;27.40;25.60;;;;;;5124903;27;27430;-64
2021/03/06 11:55:43;;;;;;;3.17;2.20;;;27.40;25.10;;;;;;5124947;27;27352;-64
2021/03/06 11:58:28;;;;;;;2.28;2.00;;;27.50;25.40;;;;;;5124674;27;27387;-64
2021/03/06 12:01:12;;;;;;;3.38;2.00;;;27.60;25.10;;;;;;5124970;27;27329;-64
2021/03/06 12:03:57;;;;;;;2.90;2.40;;;27.60;25.20;;;;;;5106139;27;27348;-63
2021/03/06 12:06:41;;;;;;;2.80;2.33;;;27.70;25.10;;;;;;5106250;27;27346;-63
2021/03/06 12:09:26;;;;;;;2.50;1.92;;;27.70;24.80;;;;;;5124699;27;27441;-64
2021/03/06 12:12:10;;;;;;;2.35;2.13;;;27.70;24.90;;;;;;5124188;27;27477;-64
2021/03/06 12:14:55;;;;;;;2.20;1.98;;;27.70;25.00;;;;;;5124603;27;26853;-64
2021/03/06 12:17:40;;;;;;;2.85;2.20;;;27.80;24.80;;;;;;5124546;27;27861;-64
2021/03/06 12:20:25;;;;;;;2.63;2.13;;;27.80;24.80;;;;;;5124726;27;27450;-64
2021/03/06 12:23:09;;;;;;;2.58;2.38;;;27.70;24.60;;;;;;5124842;27;27396;-64
2021/03/06 12:25:54;;;;;;;2.90;1.80;;;27.70;24.30;;;;;;5125513;27;27461;-64
2021/03/06 12:28:38;;;;;;;3.15;2.30;;;27.70;24.40;;;;;;5112983;27;27465;-64
2021/03/06 12:31:23;;;;;;;2.28;2.05;;;27.70;24.60;;;;;;5127889;27;27487;-62
2021/03/06 12:34:08;;;;;;;2.88;2.35;;;27.60;24.40;;;;;;5128132;27;27536;-64
2021/03/06 12:36:52;;;;;;;2.75;2.35;;;27.50;24.00;;;;;;5128025;27;27465;-63
2021/03/06 12:39:37;;;;;;;2.42;2.00;;;27.50;24.20;;;;;;5083382;28;27510;-64
2021/03/06 12:42:21;;;;;;;2.95;2.53;;;27.40;24.80;;;;;;5082550;28;27515;-63
2021/03/06 12:45:07;;;;;;;5.72;2.30;;;27.40;24.20;;;;;;5086635;28;27437;-64
2021/03/06 12:47:51;;;;;;;2.38;1.80;;;27.30;23.60;;;;;;5086349;28;27486;-64
2021/03/06 12:50:35;;;;;;;3.40;2.05;;;27.30;24.30;;;;;;5086802;28;28050;-64
2021/03/06 12:53:21;;;;;;;3.08;2.35;;;27.30;24.40;;;;;;5086666;28;27426;-64
2021/03/06 12:56:06;;;;;;;2.35;2.10;;;27.10;24.20;;;;;;5086485;28;27461;-64
2021/03/06 12:58:51;;;;;;;2.75;1.98;;;27.10;24.30;;;;;;5086625;28;27470;-64
2021/03/06 13:01:35;;;;;;;3.33;2.47;;;27.00;24.30;;;;;;5086553;28;27322;-63
2021/03/06 13:04:20;;;;;;;2.22;1.73;;;26.90;23.50;;;;;;5085777;28;27531;-64
2021/03/06 13:07:05;;;;;;;2.42;2.10;;;26.80;24.10;;;;;;5086538;28;27391;-64
2021/03/06 13:09:49;;;;;;;1.98;1.77;;;26.70;23.70;;;;;;5083491;28;27313;-64
2021/03/06 13:12:34;;;;;;;2.08;1.88;;;26.60;23.50;;;;;;5086308;28;27861;-64
2021/03/06 13:15:18;;;;;;;2.47;2.10;;;26.40;23.50;;;;;;5085435;28;27429;-62
2021/03/06 13:18:03;;;;;;;2.20;2.00;;;26.30;23.70;;;;;;5086388;28;27325;-64
2021/03/06 13:20:47;;;;;;;2.05;1.80;;;26.20;24.20;;;;;;5086293;28;27383;-64
2021/03/06 13:23:32;;;;;;;3.05;1.80;;;26.20;24.60;;;;;;5086332;28;27377;-64
2021/03/06 13:26:16;;;;;;;2.15;1.67;;;26.10;24.40;;;;;;5086067;28;27325;-64
2021/03/06 13:29:02;;;;;;;4.55;1.63;;;26.00;24.60;;;;;;5085404;28;27392;-64
2021/03/06 13:31:47;;;;;;;2.42;1.90;;;26.00;24.80;;;;;;5085977;28;27382;-64
2021/03/06 13:34:35;;;;;;;3.25;2.22;;;26.00;24.30;;;;;;5086119;28;27367;-64
2021/03/06 13:37:19;;;;;;;1.63;1.40;;;25.90;24.00;;;;;;5089377;27;27431;-63
2021/03/06 13:40:05;;;;;;;1.88;1.70;;;25.80;23.80;;;;;;5123892;27;27373;-64
2021/03/06 13:42:50;;;;;;;4.65;2.08;;;25.60;23.80;;;;;;5126730;27;27347;-64
2021/03/06 13:45:35;;;;;;;2.67;2.05;;;25.50;24.50;;;;;;5126484;27;27410;-65
2021/03/06 13:48:20;;;;;;;3.22;2.22;;;25.50;24.40;;;;;;5079057;27;27346;-64
2021/03/06 13:51:05;;;;;;;2.15;1.80;;;25.40;24.40;;;;;;5126892;27;27390;-64
2021/03/06 13:53:50;;;;;;;3.03;2.20;;;25.30;24.10;;;;;;5126735;27;27390;-64
2021/03/06 13:56:34;;;;;;;2.58;1.85;;;25.10;24.20;;;;;;5092380;27;27390;-64
2021/03/06 13:59:19;;;;;;;2.35;1.73;;;25.00;24.60;;;;;;5074694;28;27319;-64
2021/03/06 14:02:04;;;;;;;3.88;2.22;;;24.90;24.50;;;;;;5073152;28;27318;-64
2021/03/06 14:04:48;;;;;;;3.25;1.50;;;24.80;24.30;;;;;;5106158;28;27403;-64
2021/03/06 14:07:33;;;;;;;2.65;1.50;;;24.70;24.80;;;;;;5105761;28;27378;-64
2021/03/06 14:10:18;;;;;;;3.55;2.00;;;24.50;24.90;;;;;;5105669;28;27507;-64
2021/03/06 14:13:03;;;;;;;2.33;1.85;;;24.40;24.80;;;;;;5105803;28;27333;-64
2021/03/06 14:15:48;;;;;;;2.35;1.73;;;24.30;25.30;;;;;;5087596;28;27327;-63
2021/03/06 14:18:33;;;;;;;2.38;2.00;;;24.20;25.40;;;;;;5105629;28;27340;-63
2021/03/06 14:21:18;;;;;;;2.70;1.80;;;24.00;25.40;;;;;;5105590;28;27384;-63
2021/03/06 14:24:03;;;;;;;2.50;2.20;;;23.90;25.20;;;;;;5105871;28;27383;-63
2021/03/06 14:26:47;;;;;;;2.10;1.75;;;23.70;25.10;;;;;;5105265;28;27386;-63
2021/03/06 14:29:32;;;;;;;2.33;1.83;;;23.50;25.10;;;;;;5105745;28;27447;-63
2021/03/06 14:32:16;;;;;;;2.90;1.70;;;23.30;25.50;;;;;;5105717;28;27331;-63
2021/03/06 14:35:03;;;;;;;3.15;2.10;;;23.20;26.10;;;;;;5090237;28;27433;-63
2021/03/06 14:37:47;;;;;;;2.72;1.88;;;23.00;25.70;;;;;;5104956;28;27667;-61
2021/03/06 14:40:32;;;;;;;2.90;1.90;;;22.70;25.00;;;;;;5105357;28;27952;-61
2021/03/06 14:43:16;;;;;;;3.03;1.77;;;22.50;25.80;;;;;;5105598;28;27405;-63
2021/03/06 14:46:02;;;;;;;2.22;1.60;;;22.40;26.40;;;;;;5089586;28;27352;-64
2021/03/06 14:48:47;;;;;;;2.15;1.83;;;22.20;26.70;;;;;;5105134;28;27321;-63
2021/03/06 14:51:32;;;;;;;1.83;1.58;;;22.00;25.90;;;;;;5086750;28;27340;-63
2021/03/06 14:54:18;;;;;;;3.35;2.00;;;21.80;25.70;;;;;;5104666;28;27357;-63
2021/03/06 14:57:04;;;;;;;3.17;2.65;;;21.60;26.40;;;;;;5090548;28;27379;-64
2021/03/06 14:59:48;;;;;;;3.13;2.28;;;21.30;26.50;;;;;;5105342;28;27375;-64
2021/03/06 15:02:33;;;;;;;4.47;2.75;;;21.20;27.10;;;;;;5104886;28;27382;-63
2021/03/06 15:05:18;;;;;;;3.30;2.10;;;21.00;26.90;;;;;;5105234;28;27375;-63
2021/03/06 15:08:04;;;;;;;3.20;2.17;;;20.80;27.10;;;;;;5105012;28;27371;-63
2021/03/06 15:10:49;;;;;;;1.83;1.67;;;20.50;26.60;;;;;;5104854;28;27399;-61
2021/03/06 15:13:33;;;;;;;1.80;1.70;;;20.40;27.20;;;;;;5104732;28;27347;-64
2021/03/06 15:16:18;;;;;;;4.03;2.00;;;20.20;28.20;;;;;;5104774;28;27308;-63
2021/03/06 15:19:03;;;;;;;3.05;2.05;;;20.00;27.70;;;;;;5075417;28;27354;-64
2021/03/06 15:21:47;;;;;;;2.53;2.33;;;19.80;27.30;;;;;;5104494;28;27437;-64
2021/03/06 15:24:32;;;;;;;2.97;1.95;;;19.60;28.00;;;;;;5104638;28;28047;-64
2021/03/06 15:27:16;;;;;;;3.33;2.13;;;19.40;27.40;;;;;;5086264;28;27334;-64
2021/03/06 15:30:01;;;;;;;3.33;2.10;;;19.10;27.90;;;;;;5104887;28;27460;-64
2021/03/06 15:32:45;;;;;;;2.05;1.77;;;19.00;28.50;;;;;;5104573;28;27473;-64
2021/03/06 15:35:30;;;;;;;1.90;1.48;;;18.80;29.00;;;;;;5104332;28;27414;-64
2021/03/06 15:38:15;;;;;;;3.13;1.77;;;18.60;29.00;;;;;;5103764;28;27416;-64
2021/03/06 15:40:59;;;;;;;2.38;2.00;;;18.40;29.10;;;;;;5089660;28;27494;-64
2021/03/06 15:43:44;;;;;;;3.42;1.85;;;18.20;29.80;;;;;;5104399;28;27507;-64
2021/03/06 15:46:28;;;;;;;2.60;1.80;;;18.00;29.90;;;;;;5104496;28;27432;-64
2021/03/06 15:49:13;;;;;;;2.75;1.98;;;17.70;30.00;;;;;;5104202;28;27574;-64
2021/03/06 15:51:57;;;;;;;2.85;1.90;;;17.60;30.50;;;;;;5104648;28;27488;-64
2021/03/06 15:54:41;;;;;;;1.73;1.50;;;17.40;31.10;;;;;;5104411;28;27454;-64
2021/03/06 15:57:26;;;;;;;2.03;1.40;;;17.20;30.20;;;;;;5104282;27;27383;-64
2021/03/06 16:00:11;;;;;;;2.03;1.67;;;16.90;31.00;;;;;;5092352;28;27499;-64
2021/03/06 16:02:56;;;;;;;2.97;1.85;;;16.80;31.20;;;;;;5093041;28;27424;-64
2021/03/06 16:05:41;;;;;;;2.75;1.65;;;16.50;31.90;;;;;;5108072;28;27411;-63
2021/03/06 16:08:31;;;;;;;2.53;1.80;;;16.30;32.20;;;;;;5107628;28;27937;-64
2021/03/06 16:11:16;;;;;;;2.85;1.70;;;16.00;32.80;;;;;;5107892;28;27489;-64
2021/03/06 16:14:00;;;;;;;2.67;2.08;;;15.80;32.90;;;;;;5108045;28;26911;-64
2021/03/06 16:16:45;;;;;;;3.72;1.90;;;15.50;33.30;;;;;;5107383;28;27597;-65
2021/03/06 16:19:29;;;;;;;2.53;2.00;;;15.30;33.70;;;;;;5107538;28;27501;-64
2021/03/06 16:22:13;;;;;;;2.63;2.00;;;15.10;33.70;;;;;;5104274;28;27431;-65
2021/03/06 16:24:58;;;;;;;6.38;2.10;;;14.80;34.40;;;;;;5107589;28;27416;-65
2021/03/06 16:27:43;;;;;;;2.10;1.65;;;14.50;35.10;;;;;;5107099;28;27428;-64
2021/03/06 16:30:27;;;;;;;3.35;1.90;;;14.30;35.40;;;;;;5107605;28;27436;-65
2021/03/06 16:33:12;;;;;;;4.25;2.58;;;14.00;35.70;;;;;;5107635;28;27559;-65
2021/03/06 16:35:57;;;;;;;2.88;1.90;;;13.80;35.70;;;;;;5092388;28;27512;-65
2021/03/06 16:38:42;;;;;;;2.92;2.10;;;13.50;36.10;;;;;;5106706;28;27531;-65
2021/03/06 16:41:27;;;;;;;2.67;1.88;;;13.30;36.50;;;;;;5107395;28;27458;-61
2021/03/06 16:44:11;;;;;;;2.55;1.90;;;13.00;37.30;;;;;;5107251;28;27449;-65
2021/03/06 16:46:56;;;;;;;2.75;1.98;;;12.70;38.20;;;;;;5092212;28;27482;-65
2021/03/06 16:49:41;;;;;;;3.00;2.15;;;12.50;39.10;;;;;;5107063;28;27376;-64
2021/03/06 16:52:26;;;;;;;3.10;2.58;;;12.20;39.50;;;;;;5106902;28;27340;-64
2021/03/06 16:55:11;;;;;;;6.72;3.90;;;11.90;39.90;;;;;;5107275;28;27451;-65
2021/03/06 16:57:55;;;;;;;7.78;5.05;;;11.70;40.20;;;;;;5107313;28;27341;-65
2021/03/06 17:00:40;;;;;;;6.85;4.18;;;11.50;40.80;;;;;;5107163;28;27407;-66
2021/03/06 17:03:24;;;;;;;7.30;4.25;;;11.20;40.90;;;;;;5107132;28;27391;-65
2021/03/06 17:06:10;;;;;;;4.82;3.90;;;11.00;41.90;;;;;;5106933;28;27594;-62
2021/03/06 17:08:55;;;;;;;4.72;3.70;;;10.80;42.20;;;;;;5106387;27;27360;-66
2021/03/06 17:11:39;;;;;;;5.68;4.05;;;10.60;42.70;;;;;;5103864;28;27347;-66
2021/03/06 17:14:23;;;;;;;5.20;3.53;;;10.30;43.30;;;;;;5088288;28;27321;-66
2021/03/06 17:17:08;;;;;;;6.32;3.75;;;10.20;43.90;;;;;;5091885;28;27384;-66
2021/03/06 17:19:52;;;;;;;5.63;3.45;;;10.00;43.70;;;;;;5106945;28;26915;-66
2021/03/06 17:22:37;;;;;;;5.43;3.53;;;9.80;44.00;;;;;;5106663;28;27394;-66
2021/03/06 17:25:22;;;;;;;4.85;3.50;;;9.70;44.80;;;;;;5107194;28;28035;-66
2021/03/06 17:28:06;;;;;;;4.63;3.28;;;9.50;45.20;;;;;;5106520;28;27435;-65
2021/03/06 17:30:51;;;;;;;3.20;2.83;;;9.40;44.80;;;;;;5106673;28;27436;-66
2021/03/06 17:33:36;;;;;;;3.90;2.78;;;9.30;45.50;;;;;;5106602;28;27462;-66
2021/03/06 17:36:20;;;;;;;5.45;3.63;;;9.10;45.70;;;;;;5103014;28;28071;-65
2021/03/06 17:39:05;;;;;;;6.90;2.97;;;9.00;46.10;;;;;;5104598;28;27640;-62
2021/03/06 17:41:52;;;;;;;5.88;3.33;;;8.80;46.30;;;;;;5091460;28;27419;-62
2021/03/06 17:44:37;;;;;;;4.88;3.10;;;8.70;46.60;;;;;;5106477;28;27395;-62
2021/03/06 17:47:21;;;;;;;4.13;2.70;;;8.50;46.90;;;;;;5106102;28;27363;-61
2021/03/06 17:50:08;;;;;;;5.80;3.53;;;8.40;47.30;;;;;;5090894;28;27495;-63
2021/03/06 17:52:53;;;;;;;3.17;2.88;;;8.30;47.60;;;;;;5102839;28;27375;-62
2021/03/06 17:55:37;;;;;;;8.80;2.58;;;8.20;47.80;;;;;;5091239;28;27385;-62
2021/03/06 17:58:23;;;;;;;5.88;3.28;;;8.00;47.90;;;;;;5106163;28;27961;-62
2021/03/06 18:01:07;;;;;;;6.70;3.63;;;7.90;48.20;;;;;;5105865;28;27417;-61
2021/03/06 18:03:52;;;;;;;7.00;3.95;;;7.80;48.10;;;;;;5105884;28;27391;-62
2021/03/06 18:06:48;;;;;;;16.98;4.93;;;7.70;48.30;;;;;;5091072;28;26900;-61
2021/03/06 18:09:35;;;;;;;12.10;4.38;;;7.60;48.70;;;;;;5087446;28;27340;-62
2021/03/06 18:12:32;;;;;;;10.57;5.15;;;7.50;48.70;;;;;;5105972;28;27450;-63
2021/03/06 18:15:20;;;;;;;12.75;4.88;;;7.40;48.90;;;;;;5105824;28;27448;-62
2021/03/06 18:18:04;;;;;;;8.23;4.25;;;7.20;49.20;;;;;;5105949;28;27453;-62
2021/03/06 18:21:01;;;;;;;10.27;4.45;;;7.20;49.40;;;;;;5104611;28;27948;-62
2021/03/06 18:23:46;;;;;;;7.75;3.92;;;7.00;49.70;;;;;;5106002;28;27551;-62
2021/03/06 18:26:32;;;;;;;7.65;4.28;;;6.90;49.90;;;;;;5105719;28;27455;-62
2021/03/06 18:29:17;;;;;;;10.60;3.95;;;6.80;49.90;;;;;;5105413;28;27382;-63
2021/03/06 18:32:03;;;;;;;6.85;3.42;;;6.80;50.30;;;;;;5105098;28;28044;-65
2021/03/06 18:34:47;;;;;;;6.18;3.83;;;6.60;50.40;;;;;;5105252;28;27428;-62
2021/03/06 18:37:32;;;;;;;8.05;3.75;;;6.60;50.70;;;;;;5105272;28;27396;-62
2021/03/06 18:40:17;;;;;;;11.00;4.20;;;6.50;50.80;;;;;;5064764;28;27341;-62
2021/03/06 18:43:04;;;;;;;9.20;4.32;;;6.40;51.10;;;;;;5064808;28;27414;-62
2021/03/06 18:45:58;;;;;;;8.65;4.05;;;6.30;51.10;;;;;;5064751;28;27549;-62
2021/03/06 18:48:42;;;;;;;8.50;3.70;;;6.20;51.20;;;;;;5064409;28;27382;-62
2021/03/06 18:51:27;;;;;;;6.80;3.85;;;6.20;51.50;;;;;;5064768;28;27392;-62
2021/03/06 18:54:11;;;;;;;12.40;3.60;;;6.10;51.70;;;;;;5064044;28;28040;-63
2021/03/06 18:56:56;;;;;;;4.50;3.05;;;6.00;51.90;;;;;;5064375;28;27491;-62
2021/03/06 18:59:40;;;;;;;5.20;3.55;;;5.90;51.90;;;;;;5063081;28;27432;-66
2021/03/06 19:02:25;;;;;;;5.03;3.50;;;5.80;52.10;;;;;;5064251;28;27443;-66
2021/03/06 19:05:10;;;;;;;5.25;3.65;;;5.80;52.30;;;;;;5064180;28;27473;-66
2021/03/06 19:07:55;;;;;;;4.53;3.22;;;5.70;52.20;;;;;;5064223;28;27415;-67
2021/03/06 19:10:39;;;;;;;5.20;3.92;;;5.60;52.40;;;;;;5061006;28;27445;-67
2021/03/06 19:13:24;;;;;;;6.47;3.63;;;5.60;52.60;;;;;;5060250;28;27622;-66
2021/03/06 19:16:09;;;;;;;7.00;4.10;;;5.50;52.80;;;;;;5063985;28;27470;-67
2021/03/06 19:18:53;;;;;;;6.07;3.70;;;5.40;52.90;;;;;;5064009;28;27483;-67
2021/03/06 19:21:38;;;;;;;5.72;3.55;;;5.40;53.00;;;;;;5064332;28;27416;-66
2021/03/06 19:24:22;;;;;;;6.22;3.60;;;5.30;53.10;;;;;;5063438;28;27491;-67
2021/03/06 19:27:07;;;;;;;5.15;3.47;;;5.30;53.30;;;;;;5063573;28;27479;-65
2021/03/06 19:29:51;;;;;;;5.18;3.63;;;5.20;53.30;;;;;;5064182;28;27399;-62
2021/03/06 19:32:35;;;;;;;7.00;3.80;;;5.10;53.50;;;;;;5063907;28;27321;-62
2021/03/06 19:35:21;;;;;;;6.72;3.75;;;5.10;53.60;;;;;;5063911;28;27398;-66
2021/03/06 19:38:06;;;;;;;5.90;3.83;;;5.00;53.70;;;;;;5071703;28;27391;-66
2021/03/06 19:40:50;;;;;;;4.95;3.38;;;4.90;53.80;;;;;;5101186;28;27351;-67
2021/03/06 19:43:35;;;;;;;8.48;3.80;;;4.90;53.80;;;;;;5104629;28;27357;-66
2021/03/06 19:46:20;;;;;;;4.60;3.03;;;4.90;54.00;;;;;;5104526;28;27395;-67
2021/03/06 19:49:04;;;;;;;5.40;3.72;;;4.80;54.00;;;;;;5104180;28;27398;-67
2021/03/06 19:51:49;;;;;;;5.38;3.83;;;4.80;54.90;;;;;;5104159;28;27361;-66
2021/03/06 19:54:33;;;;;;;5.95;3.80;;;4.70;54.40;;;;;;5089008;28;27671;-66
2021/03/06 19:57:18;;;;;;;4.65;3.83;;;4.60;54.30;;;;;;5100828;28;27399;-66
2021/03/06 20:00:04;;;;;;;7.78;4.00;;;4.60;54.40;;;;;;5104324;28;27350;-66
2021/03/06 20:02:50;;;;;;;6.50;3.85;;;4.60;54.70;;;;;;5104179;28;27411;-66
2021/03/06 20:05:34;;;;;;;8.40;3.90;;;4.50;54.80;;;;;;5104221;28;27387;-66
2021/03/06 20:08:19;;;;;;;4.32;3.92;;;4.50;54.80;;;;;;5104018;28;27379;-65
2021/03/06 20:11:05;;;;;;;7.80;4.28;;;4.40;54.90;;;;;;5103871;28;27969;-65
2021/03/06 20:13:49;;;;;;;6.38;3.70;;;4.30;55.00;;;;;;5085265;28;27384;-66
2021/03/06 20:16:34;;;;;;;6.40;3.85;;;4.30;55.00;;;;;;5103812;28;27363;-67
2021/03/06 20:19:18;;;;;;;8.52;4.15;;;4.20;55.20;;;;;;5104107;28;27450;-66
2021/03/06 20:22:03;;;;;;;6.38;4.05;;;4.20;55.30;;;;;;5103604;28;27574;-67
2021/03/06 20:24:47;;;;;;;7.68;4.07;;;4.10;55.40;;;;;;5088583;28;27380;-67
2021/03/06 20:27:32;;;;;;;6.13;4.10;;;4.10;55.50;;;;;;5104067;28;27461;-67
2021/03/06 20:30:17;;;;;;;9.07;5.03;;;4.00;55.60;;;;;;5088807;28;27408;-67
2021/03/06 20:33:02;;;;;;;12.75;5.97;;;4.00;55.70;;;;;;5088750;28;27435;-67
2021/03/06 20:35:47;;;;;;;12.55;5.93;;;3.90;55.80;;;;;;5071060;28;27404;-67
2021/03/06 20:38:38;;;;;;;10.02;5.88;;;3.90;55.90;;;;;;5086211;28;27435;-67
2021/03/06 20:41:23;;;;;;;8.45;5.90;;;3.80;56.00;;;;;;5103853;28;27380;-62
2021/03/06 20:44:07;;;;;;;11.68;6.57;;;3.80;56.00;;;;;;5104056;28;27453;-66
2021/03/06 20:46:52;;;;;;;9.95;5.47;;;3.70;56.10;;;;;;5106946;28;27450;-67
2021/03/06 20:49:36;;;;;;;9.73;5.70;;;3.70;56.30;;;;;;5107200;28;27372;-66
2021/03/06 20:52:21;;;;;;;11.88;6.22;;;3.60;56.40;;;;;;5107214;28;27345;-66
2021/03/06 20:55:08;;;;;;;10.18;5.15;;;3.60;56.50;;;;;;5107064;28;27337;-66
2021/03/06 20:57:52;;;;;;;9.13;5.45;;;3.60;56.60;;;;;;5107083;28;27527;-67
2021/03/06 21:00:37;;;;;;;8.52;4.90;;;3.50;56.60;;;;;;5107016;28;27478;-67
2021/03/06 21:03:21;;;;;;;10.38;5.50;;;3.50;56.70;;;;;;5106906;28;27160;-67
2021/03/06 21:06:06;;;;;;;9.23;4.90;;;3.40;56.70;;;;;;5107125;28;28044;-67
2021/03/06 21:08:53;;;;;;;9.63;5.40;;;3.40;56.80;;;;;;5106459;28;27418;-67
2021/03/06 21:11:37;;;;;;;8.45;5.70;;;3.40;56.90;;;;;;5092192;28;27567;-67
2021/03/06 21:14:22;;;;;;;11.35;5.75;;;3.30;56.90;;;;;;5106590;28;27424;-66
2021/03/06 21:17:06;;;;;;;10.23;5.43;;;3.30;57.00;;;;;;5106027;28;27335;-67
2021/03/06 21:19:51;;;;;;;13.07;5.90;;;3.30;57.10;;;;;;5106788;28;27322;-67
2021/03/06 21:22:35;;;;;;;11.93;5.85;;;3.20;57.20;;;;;;5106599;28;27356;-66
2021/03/06 21:25:19;;;;;;;10.73;5.95;;;3.20;57.30;;;;;;5106559;28;27360;-66
2021/03/06 21:28:04;;;;;;;9.77;6.20;;;3.20;57.30;;;;;;5106346;28;27435;-66
2021/03/06 21:30:49;;;;;;;17.83;6.90;;;3.20;57.40;;;;;;5106482;28;27410;-65
2021/03/06 21:33:33;;;;;;;12.05;5.95;;;3.10;57.40;;;;;;5106572;28;27352;-66
2021/03/06 21:36:18;;;;;;;14.27;7.95;;;3.10;57.50;;;;;;5103282;28;27416;-67
2021/03/06 21:39:03;;;;;;;12.95;7.00;;;3.10;57.60;;;;;;5068890;28;27409;-67
2021/03/06 21:41:48;;;;;;;15.10;7.55;;;3.00;57.50;;;;;;5053638;28;27474;-67
2021/03/06 21:44:32;;;;;;;13.75;7.07;;;3.00;57.60;;;;;;5084464;28;27450;-67
2021/03/06 21:47:17;;;;;;;14.30;7.47;;;2.90;57.70;;;;;;5082424;28;27403;-66
2021/03/06 21:50:02;;;;;;;13.10;7.07;;;2.90;57.70;;;;;;5085915;28;27471;-67
2021/03/06 21:52:46;;;;;;;12.75;7.70;;;2.90;57.90;;;;;;5085843;28;27525;-67
2021/03/06 21:55:31;;;;;;;16.38;7.57;;;2.80;57.90;;;;;;5085853;28;27429;-66
2021/03/06 21:58:16;;;;;;;12.13;7.68;;;2.80;57.90;;;;;;5085432;28;27440;-66
2021/03/06 22:01:00;;;;;;;12.02;7.82;;;2.80;58.00;;;;;;5085653;28;27414;-67
2021/03/06 22:03:45;;;;;;;10.88;6.97;;;2.80;58.00;;;;;;5084898;28;27508;-66